createdAt,value
2024-05-09T00:03:49.467Z,12.93
2024-05-09T00:32:25.274Z,12.36
2024-05-09T01:00:50.814Z,11.59
2024-05-09T04:45:49.563Z,10.09
2024-05-09T05:14:41.615Z,10.74
2024-05-09T05:43:16.223Z,11.39
2024-05-09T06:11:57.901Z,12.31
2024-05-09T06:40:44.874Z,20.36
2024-05-09T07:09:39.210Z,24.29
2024-05-09T07:38:27.126Z,19.36
2024-05-09T08:06:53.591Z,18.88
2024-05-09T08:35:32.770Z,19.62
2024-05-09T09:04:12.882Z,20.38
2024-05-09T09:32:48.529Z,20.71
2024-05-09T10:01:36.083Z,20.15
2024-05-09T10:30:21.617Z,20.23
2024-05-09T10:58:31.829Z,20.21
2024-05-09T11:27:06.594Z,20.51
2024-05-09T11:55:42.377Z,21.16
2024-05-09T12:24:19.961Z,21.44
2024-05-09T12:53:06.040Z,22.08
2024-05-09T13:21:39.994Z,22.34
2024-05-09T13:50:27.211Z,22.8
2024-05-09T14:18:40.424Z,22.96
2024-05-09T14:47:17.757Z,23.48
2024-05-09T15:15:56.608Z,23.06
2024-05-09T15:44:31.169Z,23.51
2024-05-09T16:12:57.727Z,23.19
2024-05-09T16:41:31.505Z,22.59
2024-05-09T17:10:22.613Z,21.68
2024-05-09T17:38:38.485Z,21.35
2024-05-09T18:07:05.480Z,21.1
2024-05-09T18:35:32.037Z,19.8
2024-05-09T19:04:10.875Z,18.96
2024-05-09T19:32:33.513Z,17.3
2024-05-09T20:01:04.610Z,16.18
2024-05-09T20:29:25.866Z,15.61
2024-05-09T20:57:57.815Z,14.88
2024-05-09T21:26:26.253Z,14.49
2024-05-09T21:55:05.100Z,14.03
2024-05-09T22:23:43.978Z,13.56
2024-05-09T22:52:19.363Z,13.21
2024-05-09T23:20:43.435Z,13.04
2024-05-09T23:49:22.559Z,12.73
